sensor_id;sensor_type;location;lat;lon;timestamp;temperature;humidity
5176;DHT22;2607;50.934;6.934;2022-12-18T00:01:31;-2.80;99.90
5176;DHT22;2607;50.934;6.934;2022-12-18T00:03:58;-2.80;99.90
5176;DHT22;2607;50.934;6.934;2022-12-18T00:06:26;-2.80;99.90
5176;DHT22;2607;50.934;6.934;2022-12-18T00:08:52;-2.80;99.90
5176;DHT22;2607;50.934;6.934;2022-12-18T00:11:21;-2.80;99.90
5176;DHT22;2607;50.934;6.934;2022-12-18T00:13:48;-2.80;99.90
5176;DHT22;2607;50.934;6.934;2022-12-18T00:16:19;-2.80;99.90
5176;DHT22;2607;50.934;6.934;2022-12-18T00:18:47;-2.80;99.90
5176;DHT22;2607;50.934;6.934;2022-12-18T00:21:14;-2.90;99.90
5176;DHT22;2607;50.934;6.934;2022-12-18T00:23:41;-2.90;99.90
5176;DHT22;2607;50.934;6.934;2022-12-18T00:26:12;-2.90;99.90
5176;DHT22;2607;50.934;6.934;2022-12-18T00:28:41;-2.90;99.90
5176;DHT22;2607;50.934;6.934;2022-12-18T00:31:09;-2.90;99.90
5176;DHT22;2607;50.934;6.934;2022-12-18T00:33:36;-2.90;99.90
5176;DHT22;2607;50.934;6.934;2022-12-18T00:36:39;-2.80;99.90
5176;DHT22;2607;50.934;6.934;2022-12-18T00:38:58;-2.80;99.90
5176;DHT22;2607;50.934;6.934;2022-12-18T00:41:25;-2.80;99.90
5176;DHT22;2607;50.934;6.934;2022-12-18T00:44:11;-2.80;99.90
5176;DHT22;2607;50.934;6.934;2022-12-18T00:46:38;-2.80;99.90
5176;DHT22;2607;50.934;6.934;2022-12-18T00:49:04;-2.80;99.90
5176;DHT22;2607;50.934;6.934;2022-12-18T00:51:29;-2.80;99.90
5176;DHT22;2607;50.934;6.934;2022-12-18T00:53:55;-2.80;99.90
5176;DHT22;2607;50.934;6.934;2022-12-18T00:56:24;-2.80;99.90
5176;DHT22;2607;50.934;6.934;2022-12-18T00:58:50;-2.80;99.90
5176;DHT22;2607;50.934;6.934;2022-12-18T01:01:16;-2.90;99.90
5176;DHT22;2607;50.934;6.934;2022-12-18T01:03:41;-2.90;99.90
5176;DHT22;2607;50.934;6.934;2022-12-18T01:06:09;-2.90;99.90
5176;DHT22;2607;50.934;6.934;2022-12-18T01:08:35;-2.90;99.90
5176;DHT22;2607;50.934;6.934;2022-12-18T01:11:07;-2.90;99.90
5176;DHT22;2607;50.934;6.934;2022-12-18T01:13:33;-2.90;99.90
5176;DHT22;2607;50.934;6.934;2022-12-18T01:15:59;-2.90;99.90
5176;DHT22;2607;50.934;6.934;2022-12-18T01:18:24;-2.90;99.90
5176;DHT22;2607;50.934;6.934;2022-12-18T01:20:50;-2.90;99.90
5176;DHT22;2607;50.934;6.934;2022-12-18T01:23:15;-2.90;99.90
5176;DHT22;2607;50.934;6.934;2022-12-18T01:25:41;-2.90;99.90
5176;DHT22;2607;50.934;6.934;2022-12-18T01:28:07;-2.90;99.90
5176;DHT22;2607;50.934;6.934;2022-12-18T01:30:32;-2.90;99.90
5176;DHT22;2607;50.934;6.934;2022-12-18T01:32:58;-2.90;99.90
5176;DHT22;2607;50.934;6.934;2022-12-18T01:35:23;-2.90;99.90
5176;DHT22;2607;50.934;6.934;2022-12-18T01:37:49;-2.90;99.90
5176;DHT22;2607;50.934;6.934;2022-12-18T01:40:14;-2.90;99.90
5176;DHT22;2607;50.934;6.934;2022-12-18T01:42:40;-2.90;99.90
5176;DHT22;2607;50.934;6.934;2022-12-18T01:47:50;-2.90;99.90
5176;DHT22;2607;50.934;6.934;2022-12-18T01:50:31;-2.90;99.90
5176;DHT22;2607;50.934;6.934;2022-12-18T01:53:20;-2.90;99.90
5176;DHT22;2607;50.934;6.934;2022-12-18T01:55:51;-2.90;99.90
5176;DHT22;2607;50.934;6.934;2022-12-18T01:58:19;-2.90;99.90
5176;DHT22;2607;50.934;6.934;2022-12-18T02:00:45;-2.90;99.90
5176;DHT22;2607;50.934;6.934;2022-12-18T02:03:11;-2.90;99.90
5176;DHT22;2607;50.934;6.934;2022-12-18T02:05:47;-3.00;99.90
5176;DHT22;2607;50.934;6.934;2022-12-18T02:11:39;-3.00;99.90
5176;DHT22;2607;50.934;6.934;2022-12-18T02:27:51;-3.00;99.90
5176;DHT22;2607;50.934;6.934;2022-12-18T02:30:18;-3.00;99.90
5176;DHT22;2607;50.934;6.934;2022-12-18T02:32:51;-3.00;99.90
5176;DHT22;2607;50.934;6.934;2022-12-18T02:35:23;-3.00;99.90
5176;DHT22;2607;50.934;6.934;2022-12-18T02:37:53;-3.00;99.90
5176;DHT22;2607;50.934;6.934;2022-12-18T02:40:21;-3.00;99.90
5176;DHT22;2607;50.934;6.934;2022-12-18T02:42:47;-3.00;99.90
5176;DHT22;2607;50.934;6.934;2022-12-18T02:45:12;-3.00;99.90
5176;DHT22;2607;50.934;6.934;2022-12-18T02:47:42;-3.00;99.90
5176;DHT22;2607;50.934;6.934;2022-12-18T03:01:13;-3.00;99.90
5176;DHT22;2607;50.934;6.934;2022-12-18T03:06:14;-3.00;99.90
5176;DHT22;2607;50.934;6.934;2022-12-18T03:08:46;-3.00;99.90
5176;DHT22;2607;50.934;6.934;2022-12-18T03:11:14;-3.00;99.90
5176;DHT22;2607;50.934;6.934;2022-12-18T03:13:49;-3.00;99.90
5176;DHT22;2607;50.934;6.934;2022-12-18T03:16:23;-3.00;99.90
5176;DHT22;2607;50.934;6.934;2022-12-18T03:18:59;-3.00;99.90
5176;DHT22;2607;50.934;6.934;2022-12-18T03:21:39;-3.00;99.90
5176;DHT22;2607;50.934;6.934;2022-12-18T03:24:08;-3.00;99.90
5176;DHT22;2607;50.934;6.934;2022-12-18T03:26:35;-3.00;99.90
5176;DHT22;2607;50.934;6.934;2022-12-18T03:29:09;-3.00;99.90
5176;DHT22;2607;50.934;6.934;2022-12-18T03:31:40;-3.00;99.90
5176;DHT22;2607;50.934;6.934;2022-12-18T03:34:13;-3.10;99.90
5176;DHT22;2607;50.934;6.934;2022-12-18T03:36:39;-3.10;99.90
5176;DHT22;2607;50.934;6.934;2022-12-18T03:39:05;-3.10;99.90
5176;DHT22;2607;50.934;6.934;2022-12-18T03:41:44;-3.10;99.90
5176;DHT22;2607;50.934;6.934;2022-12-18T03:44:14;-3.10;99.90
5176;DHT22;2607;50.934;6.934;2022-12-18T03:47:03;-3.10;99.90
5176;DHT22;2607;50.934;6.934;2022-12-18T03:49:35;-3.10;99.90
5176;DHT22;2607;50.934;6.934;2022-12-18T03:54:43;-3.10;99.90
5176;DHT22;2607;50.934;6.934;2022-12-18T03:57:15;-3.10;99.90
5176;DHT22;2607;50.934;6.934;2022-12-18T03:59:44;-3.10;99.90
5176;DHT22;2607;50.934;6.934;2022-12-18T04:02:10;-3.10;99.90
5176;DHT22;2607;50.934;6.934;2022-12-18T04:04:37;-3.10;99.90
5176;DHT22;2607;50.934;6.934;2022-12-18T04:07:04;-3.10;99.90
5176;DHT22;2607;50.934;6.934;2022-12-18T04:09:32;-3.10;99.90
5176;DHT22;2607;50.934;6.934;2022-12-18T04:11:58;-3.20;99.90
5176;DHT22;2607;50.934;6.934;2022-12-18T04:14:23;-3.20;99.90
5176;DHT22;2607;50.934;6.934;2022-12-18T04:16:49;-3.20;99.90
5176;DHT22;2607;50.934;6.934;2022-12-18T04:19:14;-3.20;99.90
5176;DHT22;2607;50.934;6.934;2022-12-18T04:21:40;-3.20;99.90
5176;DHT22;2607;50.934;6.934;2022-12-18T04:24:06;-3.20;99.90
5176;DHT22;2607;50.934;6.934;2022-12-18T04:26:31;-3.20;99.90
5176;DHT22;2607;50.934;6.934;2022-12-18T04:28:57;-3.20;99.90
5176;DHT22;2607;50.934;6.934;2022-12-18T04:31:23;-3.20;99.90
5176;DHT22;2607;50.934;6.934;2022-12-18T04:33:48;-3.20;99.90
5176;DHT22;2607;50.934;6.934;2022-12-18T04:36:14;-3.30;99.90
5176;DHT22;2607;50.934;6.934;2022-12-18T04:38:39;-3.30;99.90
5176;DHT22;2607;50.934;6.934;2022-12-18T04:41:05;-3.30;99.90
5176;DHT22;2607;50.934;6.934;2022-12-18T04:43:31;-3.30;99.90
5176;DHT22;2607;50.934;6.934;2022-12-18T04:46:02;-3.30;99.90
5176;DHT22;2607;50.934;6.934;2022-12-18T04:48:28;-3.30;99.90
5176;DHT22;2607;50.934;6.934;2022-12-18T04:50:54;-3.30;99.90
5176;DHT22;2607;50.934;6.934;2022-12-18T04:53:19;-3.30;99.90
5176;DHT22;2607;50.934;6.934;2022-12-18T04:55:45;-3.30;99.90
5176;DHT22;2607;50.934;6.934;2022-12-18T04:58:10;-3.30;99.90
5176;DHT22;2607;50.934;6.934;2022-12-18T05:00:36;-3.30;99.90
5176;DHT22;2607;50.934;6.934;2022-12-18T05:03:02;-3.30;99.90
5176;DHT22;2607;50.934;6.934;2022-12-18T05:05:27;-3.40;99.90
5176;DHT22;2607;50.934;6.934;2022-12-18T05:07:53;-3.40;99.90
5176;DHT22;2607;50.934;6.934;2022-12-18T05:10:18;-3.40;99.90
5176;DHT22;2607;50.934;6.934;2022-12-18T05:12:44;-3.40;99.90
5176;DHT22;2607;50.934;6.934;2022-12-18T05:15:31;-3.40;99.90
5176;DHT22;2607;50.934;6.934;2022-12-18T05:17:58;-3.40;99.90
5176;DHT22;2607;50.934;6.934;2022-12-18T05:20:24;-3.50;99.90
5176;DHT22;2607;50.934;6.934;2022-12-18T05:22:50;-3.50;99.90
5176;DHT22;2607;50.934;6.934;2022-12-18T05:25:16;-3.50;99.90
5176;DHT22;2607;50.934;6.934;2022-12-18T05:27:42;-3.50;99.90
5176;DHT22;2607;50.934;6.934;2022-12-18T05:30:08;-3.40;99.90
5176;DHT22;2607;50.934;6.934;2022-12-18T05:32:34;-3.40;99.90
5176;DHT22;2607;50.934;6.934;2022-12-18T05:34:59;-3.40;99.90
5176;DHT22;2607;50.934;6.934;2022-12-18T05:37:25;-3.40;99.90
5176;DHT22;2607;50.934;6.934;2022-12-18T05:39:50;-3.40;99.90
5176;DHT22;2607;50.934;6.934;2022-12-18T05:42:16;-3.50;99.90
5176;DHT22;2607;50.934;6.934;2022-12-18T05:44:43;-3.40;99.90
5176;DHT22;2607;50.934;6.934;2022-12-18T05:47:08;-3.40;99.90
5176;DHT22;2607;50.934;6.934;2022-12-18T05:49:34;-3.40;99.90
5176;DHT22;2607;50.934;6.934;2022-12-18T05:51:59;-3.50;99.90
5176;DHT22;2607;50.934;6.934;2022-12-18T05:54:27;-3.40;99.90
5176;DHT22;2607;50.934;6.934;2022-12-18T05:56:53;-3.40;99.90
5176;DHT22;2607;50.934;6.934;2022-12-18T05:59:19;-3.40;99.90
5176;DHT22;2607;50.934;6.934;2022-12-18T06:01:45;-3.40;99.90
5176;DHT22;2607;50.934;6.934;2022-12-18T06:04:11;-3.40;99.90
5176;DHT22;2607;50.934;6.934;2022-12-18T06:06:36;-3.40;99.90
5176;DHT22;2607;50.934;6.934;2022-12-18T06:09:02;-3.30;99.90
5176;DHT22;2607;50.934;6.934;2022-12-18T06:11:34;-3.30;99.90
5176;DHT22;2607;50.934;6.934;2022-12-18T06:14:00;-3.30;99.90
5176;DHT22;2607;50.934;6.934;2022-12-18T06:16:27;-3.30;99.90
5176;DHT22;2607;50.934;6.934;2022-12-18T06:18:53;-3.30;99.90
5176;DHT22;2607;50.934;6.934;2022-12-18T06:21:18;-3.40;99.90
5176;DHT22;2607;50.934;6.934;2022-12-18T06:23:45;-3.40;99.90
5176;DHT22;2607;50.934;6.934;2022-12-18T06:26:11;-3.40;99.90
5176;DHT22;2607;50.934;6.934;2022-12-18T06:28:37;-3.40;99.90
5176;DHT22;2607;50.934;6.934;2022-12-18T06:31:04;-3.40;99.90
5176;DHT22;2607;50.934;6.934;2022-12-18T06:33:29;-3.40;99.90
5176;DHT22;2607;50.934;6.934;2022-12-18T06:36:04;-3.40;99.90
5176;DHT22;2607;50.934;6.934;2022-12-18T06:38:31;-3.40;99.90
5176;DHT22;2607;50.934;6.934;2022-12-18T06:40:57;-3.40;99.90
5176;DHT22;2607;50.934;6.934;2022-12-18T06:43:22;-3.40;99.90
5176;DHT22;2607;50.934;6.934;2022-12-18T06:45:48;-3.40;99.90
5176;DHT22;2607;50.934;6.934;2022-12-18T06:48:21;-3.40;99.90
5176;DHT22;2607;50.934;6.934;2022-12-18T06:50:46;-3.50;99.90
5176;DHT22;2607;50.934;6.934;2022-12-18T06:53:12;-3.40;99.90
5176;DHT22;2607;50.934;6.934;2022-12-18T06:55:37;-3.40;99.90
5176;DHT22;2607;50.934;6.934;2022-12-18T06:58:03;-3.40;99.90
5176;DHT22;2607;50.934;6.934;2022-12-18T07:00:28;-3.40;99.90
5176;DHT22;2607;50.934;6.934;2022-12-18T07:02:54;-3.40;99.90
5176;DHT22;2607;50.934;6.934;2022-12-18T07:05:19;-3.40;99.90
5176;DHT22;2607;50.934;6.934;2022-12-18T07:07:45;-3.40;99.90
5176;DHT22;2607;50.934;6.934;2022-12-18T07:10:11;-3.40;99.90
5176;DHT22;2607;50.934;6.934;2022-12-18T07:12:36;-3.40;99.90
5176;DHT22;2607;50.934;6.934;2022-12-18T07:15:02;-3.50;99.90
5176;DHT22;2607;50.934;6.934;2022-12-18T07:17:28;-3.50;99.90
5176;DHT22;2607;50.934;6.934;2022-12-18T07:19:54;-3.50;99.90
5176;DHT22;2607;50.934;6.934;2022-12-18T07:22:20;-3.50;99.90
5176;DHT22;2607;50.934;6.934;2022-12-18T07:24:46;-3.60;99.90
5176;DHT22;2607;50.934;6.934;2022-12-18T07:27:11;-3.60;99.90
5176;DHT22;2607;50.934;6.934;2022-12-18T07:29:37;-3.60;99.90
5176;DHT22;2607;50.934;6.934;2022-12-18T07:32:02;-3.60;99.90
5176;DHT22;2607;50.934;6.934;2022-12-18T07:34:28;-3.50;99.90
5176;DHT22;2607;50.934;6.934;2022-12-18T07:36:53;-3.60;99.90
5176;DHT22;2607;50.934;6.934;2022-12-18T07:39:19;-3.60;99.90
5176;DHT22;2607;50.934;6.934;2022-12-18T07:41:44;-3.50;99.90
5176;DHT22;2607;50.934;6.934;2022-12-18T07:44:30;-3.60;99.90
5176;DHT22;2607;50.934;6.934;2022-12-18T07:46:55;-3.60;99.90
5176;DHT22;2607;50.934;6.934;2022-12-18T07:49:21;-3.50;99.90
5176;DHT22;2607;50.934;6.934;2022-12-18T07:51:46;-3.50;99.90
5176;DHT22;2607;50.934;6.934;2022-12-18T07:54:14;-3.50;99.90
5176;DHT22;2607;50.934;6.934;2022-12-18T07:56:40;-3.50;99.90
5176;DHT22;2607;50.934;6.934;2022-12-18T07:59:05;-3.50;99.90
5176;DHT22;2607;50.934;6.934;2022-12-18T08:01:31;-3.50;99.90
5176;DHT22;2607;50.934;6.934;2022-12-18T08:03:57;-3.50;99.90
5176;DHT22;2607;50.934;6.934;2022-12-18T08:06:23;-3.50;99.90
5176;DHT22;2607;50.934;6.934;2022-12-18T08:08:48;-3.50;99.90
5176;DHT22;2607;50.934;6.934;2022-12-18T08:11:14;-3.40;99.90
5176;DHT22;2607;50.934;6.934;2022-12-18T08:13:39;-3.40;99.90
5176;DHT22;2607;50.934;6.934;2022-12-18T08:16:06;-3.40;99.90
5176;DHT22;2607;50.934;6.934;2022-12-18T08:18:33;-3.40;99.90
5176;DHT22;2607;50.934;6.934;2022-12-18T08:21:17;-3.40;99.90
5176;DHT22;2607;50.934;6.934;2022-12-18T08:23:43;-3.40;99.90
5176;DHT22;2607;50.934;6.934;2022-12-18T08:26:10;-3.30;99.90
5176;DHT22;2607;50.934;6.934;2022-12-18T08:28:36;-3.30;99.90
5176;DHT22;2607;50.934;6.934;2022-12-18T08:31:02;-3.30;99.90
5176;DHT22;2607;50.934;6.934;2022-12-18T08:33:28;-3.30;99.90
5176;DHT22;2607;50.934;6.934;2022-12-18T08:35:53;-3.20;99.90
5176;DHT22;2607;50.934;6.934;2022-12-18T08:38:19;-3.20;99.90
5176;DHT22;2607;50.934;6.934;2022-12-18T08:40:44;-3.20;99.90
5176;DHT22;2607;50.934;6.934;2022-12-18T08:43:10;-3.20;99.90
5176;DHT22;2607;50.934;6.934;2022-12-18T08:45:55;-3.10;99.90
5176;DHT22;2607;50.934;6.934;2022-12-18T08:48:20;-3.10;99.90
5176;DHT22;2607;50.934;6.934;2022-12-18T08:50:56;-3.10;99.90
5176;DHT22;2607;50.934;6.934;2022-12-18T08:53:27;-3.00;99.90
5176;DHT22;2607;50.934;6.934;2022-12-18T08:55:52;-3.00;99.90
5176;DHT22;2607;50.934;6.934;2022-12-18T08:58:18;-3.00;99.90
5176;DHT22;2607;50.934;6.934;2022-12-18T09:00:44;-2.90;99.90
5176;DHT22;2607;50.934;6.934;2022-12-18T09:03:17;-2.90;99.90
5176;DHT22;2607;50.934;6.934;2022-12-18T09:05:45;-2.90;99.90
5176;DHT22;2607;50.934;6.934;2022-12-18T09:08:11;-2.80;99.90
5176;DHT22;2607;50.934;6.934;2022-12-18T09:10:46;-2.80;99.90
5176;DHT22;2607;50.934;6.934;2022-12-18T09:13:12;-2.70;99.90
5176;DHT22;2607;50.934;6.934;2022-12-18T09:15:46;-2.70;99.90
5176;DHT22;2607;50.934;6.934;2022-12-18T09:18:13;-2.60;99.90
5176;DHT22;2607;50.934;6.934;2022-12-18T09:20:39;-2.60;99.90
5176;DHT22;2607;50.934;6.934;2022-12-18T09:23:05;-2.60;99.90
5176;DHT22;2607;50.934;6.934;2022-12-18T09:25:32;-2.50;99.90
5176;DHT22;2607;50.934;6.934;2022-12-18T09:28:17;-2.50;99.90
5176;DHT22;2607;50.934;6.934;2022-12-18T09:30:47;-2.50;99.90
5176;DHT22;2607;50.934;6.934;2022-12-18T09:33:14;-2.40;99.90
5176;DHT22;2607;50.934;6.934;2022-12-18T09:35:41;-2.40;99.90
5176;DHT22;2607;50.934;6.934;2022-12-18T09:38:09;-2.30;99.90
5176;DHT22;2607;50.934;6.934;2022-12-18T09:40:49;-2.30;99.90
5176;DHT22;2607;50.934;6.934;2022-12-18T09:43:19;-2.20;99.90
5176;DHT22;2607;50.934;6.934;2022-12-18T09:45:49;-2.20;99.90
5176;DHT22;2607;50.934;6.934;2022-12-18T09:48:24;-2.10;99.90
5176;DHT22;2607;50.934;6.934;2022-12-18T09:50:52;-2.00;99.90
5176;DHT22;2607;50.934;6.934;2022-12-18T09:53:24;-2.00;99.90
5176;DHT22;2607;50.934;6.934;2022-12-18T09:55:52;-1.90;99.90
5176;DHT22;2607;50.934;6.934;2022-12-18T09:58:41;-1.80;99.90
5176;DHT22;2607;50.934;6.934;2022-12-18T10:01:15;-1.80;99.90
5176;DHT22;2607;50.934;6.934;2022-12-18T10:03:43;-1.70;99.90
5176;DHT22;2607;50.934;6.934;2022-12-18T10:06:31;-1.70;99.90
5176;DHT22;2607;50.934;6.934;2022-12-18T10:12:13;-1.60;99.90
5176;DHT22;2607;50.934;6.934;2022-12-18T10:20:02;-1.40;99.90
5176;DHT22;2607;50.934;6.934;2022-12-18T10:25:20;-1.40;99.90
5176;DHT22;2607;50.934;6.934;2022-12-18T10:27:47;-1.30;99.90
5176;DHT22;2607;50.934;6.934;2022-12-18T10:30:16;-1.30;99.90
5176;DHT22;2607;50.934;6.934;2022-12-18T10:32:42;-1.20;99.90
5176;DHT22;2607;50.934;6.934;2022-12-18T10:35:20;-1.20;99.90
5176;DHT22;2607;50.934;6.934;2022-12-18T10:38:02;-1.10;99.90
5176;DHT22;2607;50.934;6.934;2022-12-18T10:40:29;-1.10;99.90
5176;DHT22;2607;50.934;6.934;2022-12-18T10:43:14;-1.10;99.90
5176;DHT22;2607;50.934;6.934;2022-12-18T10:45:42;-1.00;99.90
5176;DHT22;2607;50.934;6.934;2022-12-18T10:48:22;-1.00;99.90
5176;DHT22;2607;50.934;6.934;2022-12-18T10:50:50;-0.90;99.90
5176;DHT22;2607;50.934;6.934;2022-12-18T10:53:21;-0.90;99.90
5176;DHT22;2607;50.934;6.934;2022-12-18T10:55:47;-0.80;99.90
5176;DHT22;2607;50.934;6.934;2022-12-18T10:58:25;-0.80;99.90
5176;DHT22;2607;50.934;6.934;2022-12-18T11:01:11;-0.80;99.90
5176;DHT22;2607;50.934;6.934;2022-12-18T11:03:41;-0.70;99.90
5176;DHT22;2607;50.934;6.934;2022-12-18T11:06:10;-0.70;99.90
5176;DHT22;2607;50.934;6.934;2022-12-18T11:08:36;-0.60;99.90
5176;DHT22;2607;50.934;6.934;2022-12-18T11:11:02;-0.60;99.90
5176;DHT22;2607;50.934;6.934;2022-12-18T11:13:29;-0.50;99.90
5176;DHT22;2607;50.934;6.934;2022-12-18T11:15:56;-0.50;99.90
5176;DHT22;2607;50.934;6.934;2022-12-18T11:18:27;-0.50;99.90
5176;DHT22;2607;50.934;6.934;2022-12-18T11:21:16;-0.40;99.90
5176;DHT22;2607;50.934;6.934;2022-12-18T11:23:52;-0.40;99.90
5176;DHT22;2607;50.934;6.934;2022-12-18T11:26:18;-0.30;99.90
5176;DHT22;2607;50.934;6.934;2022-12-18T11:28:52;-0.30;99.90
5176;DHT22;2607;50.934;6.934;2022-12-18T11:31:32;-0.30;99.90
5176;DHT22;2607;50.934;6.934;2022-12-18T11:34:10;-0.30;99.90
5176;DHT22;2607;50.934;6.934;2022-12-18T11:36:39;-0.20;99.90
5176;DHT22;2607;50.934;6.934;2022-12-18T11:39:34;-0.30;99.90
5176;DHT22;2607;50.934;6.934;2022-12-18T11:42:19;-0.20;99.90
5176;DHT22;2607;50.934;6.934;2022-12-18T11:45:00;-0.20;99.90
5176;DHT22;2607;50.934;6.934;2022-12-18T11:50:48;-0.20;99.90
5176;DHT22;2607;50.934;6.934;2022-12-18T11:53:14;-0.10;99.90
5176;DHT22;2607;50.934;6.934;2022-12-18T11:59:14;-0.10;99.90
5176;DHT22;2607;50.934;6.934;2022-12-18T12:07:30;-0.10;99.90
5176;DHT22;2607;50.934;6.934;2022-12-18T12:15:51;0.00;99.90
5176;DHT22;2607;50.934;6.934;2022-12-18T12:21:08;0.00;99.90
5176;DHT22;2607;50.934;6.934;2022-12-18T12:35:21;0.10;99.90
5176;DHT22;2607;50.934;6.934;2022-12-18T12:38:12;0.10;99.80
5176;DHT22;2607;50.934;6.934;2022-12-18T12:40:46;0.10;99.90
5176;DHT22;2607;50.934;6.934;2022-12-18T12:43:33;0.10;99.80
5176;DHT22;2607;50.934;6.934;2022-12-18T12:46:07;0.10;99.70
5176;DHT22;2607;50.934;6.934;2022-12-18T12:51:17;0.10;99.80
5176;DHT22;2607;50.934;6.934;2022-12-18T12:53:43;0.20;99.10
5176;DHT22;2607;50.934;6.934;2022-12-18T12:56:12;0.10;99.50
5176;DHT22;2607;50.934;6.934;2022-12-18T13:01:46;0.10;99.40
5176;DHT22;2607;50.934;6.934;2022-12-18T13:04:33;0.00;99.70
5176;DHT22;2607;50.934;6.934;2022-12-18T13:07:10;0.10;99.70
5176;DHT22;2607;50.934;6.934;2022-12-18T13:10:11;0.10;99.60
5176;DHT22;2607;50.934;6.934;2022-12-18T13:17:48;0.10;99.80
5176;DHT22;2607;50.934;6.934;2022-12-18T13:20:15;0.10;99.90
5176;DHT22;2607;50.934;6.934;2022-12-18T13:22:47;0.10;99.90
5176;DHT22;2607;50.934;6.934;2022-12-18T13:25:33;0.10;99.90
5176;DHT22;2607;50.934;6.934;2022-12-18T13:28:16;0.10;99.90
5176;DHT22;2607;50.934;6.934;2022-12-18T13:30:48;0.10;99.80
5176;DHT22;2607;50.934;6.934;2022-12-18T13:38:35;0.10;99.60
5176;DHT22;2607;50.934;6.934;2022-12-18T13:43:43;0.10;99.80
5176;DHT22;2607;50.934;6.934;2022-12-18T13:46:19;0.10;99.70
5176;DHT22;2607;50.934;6.934;2022-12-18T13:49:04;0.10;99.90
5176;DHT22;2607;50.934;6.934;2022-12-18T13:51:33;0.10;99.90
5176;DHT22;2607;50.934;6.934;2022-12-18T13:56:47;0.20;99.60
5176;DHT22;2607;50.934;6.934;2022-12-18T14:01:43;0.10;99.60
5176;DHT22;2607;50.934;6.934;2022-12-18T14:04:19;0.20;99.80
5176;DHT22;2607;50.934;6.934;2022-12-18T14:06:46;0.10;99.70
5176;DHT22;2607;50.934;6.934;2022-12-18T14:09:15;0.20;99.80
5176;DHT22;2607;50.934;6.934;2022-12-18T14:11:46;0.10;99.70
5176;DHT22;2607;50.934;6.934;2022-12-18T14:14:15;0.10;99.90
5176;DHT22;2607;50.934;6.934;2022-12-18T14:16:41;0.10;99.50
5176;DHT22;2607;50.934;6.934;2022-12-18T14:19:12;0.20;99.70
5176;DHT22;2607;50.934;6.934;2022-12-18T14:21:39;0.10;99.90
5176;DHT22;2607;50.934;6.934;2022-12-18T14:24:17;0.10;99.90
5176;DHT22;2607;50.934;6.934;2022-12-18T14:26:43;0.10;99.90
5176;DHT22;2607;50.934;6.934;2022-12-18T14:29:22;0.10;99.90
5176;DHT22;2607;50.934;6.934;2022-12-18T14:32:14;0.10;99.90
5176;DHT22;2607;50.934;6.934;2022-12-18T14:34:43;0.10;99.90
5176;DHT22;2607;50.934;6.934;2022-12-18T14:37:15;0.10;99.90
5176;DHT22;2607;50.934;6.934;2022-12-18T14:39:41;0.10;99.90
5176;DHT22;2607;50.934;6.934;2022-12-18T14:42:17;0.10;99.90
5176;DHT22;2607;50.934;6.934;2022-12-18T14:44:42;0.10;99.90
5176;DHT22;2607;50.934;6.934;2022-12-18T14:47:14;0.10;99.90
5176;DHT22;2607;50.934;6.934;2022-12-18T14:49:42;0.10;99.90
5176;DHT22;2607;50.934;6.934;2022-12-18T14:52:27;0.10;99.90
5176;DHT22;2607;50.934;6.934;2022-12-18T14:54:54;0.10;99.90
5176;DHT22;2607;50.934;6.934;2022-12-18T14:57:36;0.10;99.90
5176;DHT22;2607;50.934;6.934;2022-12-18T15:00:05;0.00;99.90
5176;DHT22;2607;50.934;6.934;2022-12-18T15:02:31;0.00;99.90
5176;DHT22;2607;50.934;6.934;2022-12-18T15:05:16;-0.10;99.90
5176;DHT22;2607;50.934;6.934;2022-12-18T15:07:53;0.00;99.90
5176;DHT22;2607;50.934;6.934;2022-12-18T15:10:30;-0.10;99.90
5176;DHT22;2607;50.934;6.934;2022-12-18T15:20:52;-0.10;99.90
5176;DHT22;2607;50.934;6.934;2022-12-18T15:23:22;-0.20;99.90
5176;DHT22;2607;50.934;6.934;2022-12-18T15:26:00;-0.20;99.90
5176;DHT22;2607;50.934;6.934;2022-12-18T15:28:27;-0.20;99.90
5176;DHT22;2607;50.934;6.934;2022-12-18T15:30:58;-0.20;99.90
5176;DHT22;2607;50.934;6.934;2022-12-18T15:33:27;-0.20;99.90
5176;DHT22;2607;50.934;6.934;2022-12-18T15:35:59;-0.20;99.90
5176;DHT22;2607;50.934;6.934;2022-12-18T15:38:25;-0.30;99.90
5176;DHT22;2607;50.934;6.934;2022-12-18T15:40:52;-0.20;99.90
5176;DHT22;2607;50.934;6.934;2022-12-18T15:43:21;-0.20;99.90
5176;DHT22;2607;50.934;6.934;2022-12-18T15:46:33;-0.20;99.90
5176;DHT22;2607;50.934;6.934;2022-12-18T15:48:56;-0.30;99.90
5176;DHT22;2607;50.934;6.934;2022-12-18T15:51:35;-0.30;99.90
5176;DHT22;2607;50.934;6.934;2022-12-18T15:54:05;-0.30;99.90
5176;DHT22;2607;50.934;6.934;2022-12-18T15:56:34;-0.30;99.90
5176;DHT22;2607;50.934;6.934;2022-12-18T15:59:20;-0.30;99.90
5176;DHT22;2607;50.934;6.934;2022-12-18T16:01:49;-0.30;99.90
5176;DHT22;2607;50.934;6.934;2022-12-18T16:04:18;-0.30;99.90
5176;DHT22;2607;50.934;6.934;2022-12-18T16:06:47;-0.30;99.90
5176;DHT22;2607;50.934;6.934;2022-12-18T16:09:13;-0.30;99.90
5176;DHT22;2607;50.934;6.934;2022-12-18T16:11:42;-0.40;99.90
5176;DHT22;2607;50.934;6.934;2022-12-18T16:14:25;-0.40;99.90
5176;DHT22;2607;50.934;6.934;2022-12-18T16:16:59;-0.40;99.90
5176;DHT22;2607;50.934;6.934;2022-12-18T16:19:26;-0.30;99.90
5176;DHT22;2607;50.934;6.934;2022-12-18T16:21:53;-0.40;99.90
5176;DHT22;2607;50.934;6.934;2022-12-18T16:24:23;-0.40;99.90
5176;DHT22;2607;50.934;6.934;2022-12-18T16:26:49;-0.40;99.90
5176;DHT22;2607;50.934;6.934;2022-12-18T16:29:17;-0.40;99.90
5176;DHT22;2607;50.934;6.934;2022-12-18T16:31:43;-0.30;99.90
5176;DHT22;2607;50.934;6.934;2022-12-18T16:34:26;-0.30;99.90
5176;DHT22;2607;50.934;6.934;2022-12-18T16:36:57;-0.30;99.90
5176;DHT22;2607;50.934;6.934;2022-12-18T16:39:24;-0.30;99.90
5176;DHT22;2607;50.934;6.934;2022-12-18T16:41:49;-0.30;99.90
5176;DHT22;2607;50.934;6.934;2022-12-18T16:44:15;-0.30;99.90
5176;DHT22;2607;50.934;6.934;2022-12-18T16:46:41;-0.30;99.90
5176;DHT22;2607;50.934;6.934;2022-12-18T16:49:14;-0.30;99.90
5176;DHT22;2607;50.934;6.934;2022-12-18T16:51:40;-0.30;99.90
5176;DHT22;2607;50.934;6.934;2022-12-18T16:54:05;-0.30;99.90
5176;DHT22;2607;50.934;6.934;2022-12-18T16:56:31;-0.30;99.90
5176;DHT22;2607;50.934;6.934;2022-12-18T16:58:59;-0.30;99.90
5176;DHT22;2607;50.934;6.934;2022-12-18T17:01:27;-0.30;99.90
5176;DHT22;2607;50.934;6.934;2022-12-18T17:03:59;-0.20;99.90
5176;DHT22;2607;50.934;6.934;2022-12-18T17:06:27;-0.20;99.90
5176;DHT22;2607;50.934;6.934;2022-12-18T17:09:01;-0.30;99.90
5176;DHT22;2607;50.934;6.934;2022-12-18T17:11:29;-0.30;99.90
5176;DHT22;2607;50.934;6.934;2022-12-18T17:13:55;-0.30;99.90
5176;DHT22;2607;50.934;6.934;2022-12-18T17:16:21;-0.30;99.90
5176;DHT22;2607;50.934;6.934;2022-12-18T17:18:47;-0.30;99.90
5176;DHT22;2607;50.934;6.934;2022-12-18T17:21:13;-0.30;99.90
5176;DHT22;2607;50.934;6.934;2022-12-18T17:23:42;-0.30;99.90
5176;DHT22;2607;50.934;6.934;2022-12-18T17:26:09;-0.30;99.90
5176;DHT22;2607;50.934;6.934;2022-12-18T17:28:36;-0.30;99.90
5176;DHT22;2607;50.934;6.934;2022-12-18T17:31:10;-0.30;99.90
5176;DHT22;2607;50.934;6.934;2022-12-18T17:33:36;-0.30;99.90
5176;DHT22;2607;50.934;6.934;2022-12-18T17:36:02;-0.30;99.90
5176;DHT22;2607;50.934;6.934;2022-12-18T17:38:27;-0.30;99.90
5176;DHT22;2607;50.934;6.934;2022-12-18T17:40:53;-0.30;99.90
5176;DHT22;2607;50.934;6.934;2022-12-18T17:43:18;-0.30;99.90
5176;DHT22;2607;50.934;6.934;2022-12-18T17:45:44;-0.30;99.90
5176;DHT22;2607;50.934;6.934;2022-12-18T17:48:09;-0.30;99.90
5176;DHT22;2607;50.934;6.934;2022-12-18T17:50:35;-0.30;99.90
5176;DHT22;2607;50.934;6.934;2022-12-18T17:53:02;-0.30;99.90
5176;DHT22;2607;50.934;6.934;2022-12-18T17:55:28;-0.30;99.90
5176;DHT22;2607;50.934;6.934;2022-12-18T17:57:54;-0.30;99.90
5176;DHT22;2607;50.934;6.934;2022-12-18T18:00:20;-0.30;99.90
5176;DHT22;2607;50.934;6.934;2022-12-18T18:02:46;-0.30;99.90
5176;DHT22;2607;50.934;6.934;2022-12-18T18:05:11;-0.30;99.90
5176;DHT22;2607;50.934;6.934;2022-12-18T18:07:38;-0.30;99.90
5176;DHT22;2607;50.934;6.934;2022-12-18T18:10:05;-0.30;99.90
5176;DHT22;2607;50.934;6.934;2022-12-18T18:12:31;-0.30;99.90